sensor_id;sensor_type;location;lat;lon;timestamp;P1;durP1;ratioP1;P2;durP2;ratioP2
13816;SDS011;6979;52.116;5.286;2022-08-19T00:00:00;2.57;;;2.43;;
13816;SDS011;6979;52.116;5.286;2022-08-19T00:02:29;2.97;;;2.70;;
13816;SDS011;6979;52.116;5.286;2022-08-19T00:04:56;3.20;;;3.00;;
13816;SDS011;6979;52.116;5.286;2022-08-19T00:07:22;3.23;;;3.03;;
13816;SDS011;6979;52.116;5.286;2022-08-19T00:09:49;3.63;;;3.37;;
13816;SDS011;6979;52.116;5.286;2022-08-19T00:12:16;2.93;;;2.80;;
13816;SDS011;6979;52.116;5.286;2022-08-19T00:14:44;3.50;;;3.27;;
13816;SDS011;6979;52.116;5.286;2022-08-19T00:17:11;3.10;;;2.90;;
13816;SDS011;6979;52.116;5.286;2022-08-19T00:19:38;3.10;;;2.90;;
13816;SDS011;6979;52.116;5.286;2022-08-19T00:22:05;3.70;;;3.50;;
13816;SDS011;6979;52.116;5.286;2022-08-19T00:24:33;3.17;;;2.97;;
13816;SDS011;6979;52.116;5.286;2022-08-19T00:27:02;3.30;;;3.10;;
13816;SDS011;6979;52.116;5.286;2022-08-19T00:29:29;6.40;;;5.90;;
13816;SDS011;6979;52.116;5.286;2022-08-19T00:31:58;3.93;;;3.73;;
13816;SDS011;6979;52.116;5.286;2022-08-19T00:34:25;3.70;;;3.50;;
13816;SDS011;6979;52.116;5.286;2022-08-19T00:36:53;3.93;;;3.73;;
13816;SDS011;6979;52.116;5.286;2022-08-19T00:39:21;2.93;;;2.83;;
13816;SDS011;6979;52.116;5.286;2022-08-19T00:41:49;3.37;;;3.17;;
13816;SDS011;6979;52.116;5.286;2022-08-19T00:44:17;3.30;;;3.10;;
13816;SDS011;6979;52.116;5.286;2022-08-19T00:46:45;3.40;;;3.20;;
13816;SDS011;6979;52.116;5.286;2022-08-19T00:49:16;3.17;;;2.97;;
13816;SDS011;6979;52.116;5.286;2022-08-19T00:51:47;3.03;;;2.93;;
13816;SDS011;6979;52.116;5.286;2022-08-19T00:54:17;2.90;;;2.80;;
13816;SDS011;6979;52.116;5.286;2022-08-19T00:56:45;3.17;;;3.03;;
13816;SDS011;6979;52.116;5.286;2022-08-19T00:59:13;2.77;;;2.67;;
13816;SDS011;6979;52.116;5.286;2022-08-19T01:01:42;3.10;;;2.80;;
13816;SDS011;6979;52.116;5.286;2022-08-19T01:04:10;3.50;;;3.20;;
13816;SDS011;6979;52.116;5.286;2022-08-19T01:06:39;3.40;;;3.03;;
13816;SDS011;6979;52.116;5.286;2022-08-19T01:09:07;2.93;;;2.73;;
13816;SDS011;6979;52.116;5.286;2022-08-19T01:11:35;3.23;;;3.03;;
13816;SDS011;6979;52.116;5.286;2022-08-19T01:14:04;3.20;;;3.10;;
13816;SDS011;6979;52.116;5.286;2022-08-19T01:16:33;3.57;;;3.27;;
13816;SDS011;6979;52.116;5.286;2022-08-19T01:19:02;2.63;;;2.53;;
13816;SDS011;6979;52.116;5.286;2022-08-19T01:21:37;2.90;;;2.80;;
13816;SDS011;6979;52.116;5.286;2022-08-19T01:24:09;2.90;;;2.80;;
13816;SDS011;6979;52.116;5.286;2022-08-19T01:26:38;3.17;;;2.97;;
13816;SDS011;6979;52.116;5.286;2022-08-19T01:29:07;3.70;;;3.50;;
13816;SDS011;6979;52.116;5.286;2022-08-19T01:31:34;4.60;;;4.30;;
13816;SDS011;6979;52.116;5.286;2022-08-19T01:34:01;5.10;;;4.63;;
13816;SDS011;6979;52.116;5.286;2022-08-19T01:36:30;3.63;;;3.43;;
13816;SDS011;6979;52.116;5.286;2022-08-19T01:38:58;3.90;;;3.50;;
13816;SDS011;6979;52.116;5.286;2022-08-19T01:41:29;3.27;;;3.07;;
13816;SDS011;6979;52.116;5.286;2022-08-19T01:43:56;3.50;;;3.30;;
13816;SDS011;6979;52.116;5.286;2022-08-19T01:46:23;3.20;;;3.00;;
13816;SDS011;6979;52.116;5.286;2022-08-19T01:48:50;3.07;;;2.90;;
13816;SDS011;6979;52.116;5.286;2022-08-19T01:51:17;3.07;;;2.97;;
13816;SDS011;6979;52.116;5.286;2022-08-19T01:53:46;3.73;;;3.53;;
13816;SDS011;6979;52.116;5.286;2022-08-19T01:56:14;4.03;;;3.63;;
13816;SDS011;6979;52.116;5.286;2022-08-19T01:58:43;3.57;;;3.27;;
13816;SDS011;6979;52.116;5.286;2022-08-19T02:01:14;3.40;;;3.10;;
13816;SDS011;6979;52.116;5.286;2022-08-19T02:03:41;3.33;;;3.13;;
13816;SDS011;6979;52.116;5.286;2022-08-19T02:06:08;3.43;;;3.27;;
13816;SDS011;6979;52.116;5.286;2022-08-19T02:08:36;3.60;;;3.30;;
13816;SDS011;6979;52.116;5.286;2022-08-19T02:11:04;3.83;;;3.63;;
13816;SDS011;6979;52.116;5.286;2022-08-19T02:13:32;3.87;;;3.53;;
13816;SDS011;6979;52.116;5.286;2022-08-19T02:16:01;3.50;;;3.30;;
13816;SDS011;6979;52.116;5.286;2022-08-19T02:18:28;3.83;;;3.63;;
13816;SDS011;6979;52.116;5.286;2022-08-19T02:20:55;4.07;;;3.87;;
13816;SDS011;6979;52.116;5.286;2022-08-19T02:23:22;3.67;;;3.47;;
13816;SDS011;6979;52.116;5.286;2022-08-19T02:25:49;3.73;;;3.53;;
13816;SDS011;6979;52.116;5.286;2022-08-19T02:28:17;4.17;;;3.93;;
13816;SDS011;6979;52.116;5.286;2022-08-19T02:30:45;4.53;;;4.20;;
13816;SDS011;6979;52.116;5.286;2022-08-19T02:33:14;4.27;;;3.97;;
13816;SDS011;6979;52.116;5.286;2022-08-19T02:35:41;3.80;;;3.60;;
13816;SDS011;6979;52.116;5.286;2022-08-19T02:38:09;3.93;;;3.73;;
13816;SDS011;6979;52.116;5.286;2022-08-19T02:40:52;4.07;;;3.87;;
13816;SDS011;6979;52.116;5.286;2022-08-19T02:43:21;4.37;;;4.07;;
13816;SDS011;6979;52.116;5.286;2022-08-19T02:45:48;5.37;;;4.87;;
13816;SDS011;6979;52.116;5.286;2022-08-19T02:48:19;5.00;;;4.67;;
13816;SDS011;6979;52.116;5.286;2022-08-19T02:50:47;4.93;;;4.53;;
13816;SDS011;6979;52.116;5.286;2022-08-19T02:53:17;4.63;;;4.33;;
13816;SDS011;6979;52.116;5.286;2022-08-19T02:55:44;4.27;;;3.97;;
13816;SDS011;6979;52.116;5.286;2022-08-19T02:58:13;4.80;;;4.40;;
13816;SDS011;6979;52.116;5.286;2022-08-19T03:00:41;4.97;;;4.67;;
13816;SDS011;6979;52.116;5.286;2022-08-19T03:03:09;5.10;;;4.70;;
13816;SDS011;6979;52.116;5.286;2022-08-19T03:05:38;4.17;;;3.97;;
13816;SDS011;6979;52.116;5.286;2022-08-19T03:08:05;5.03;;;4.63;;
13816;SDS011;6979;52.116;5.286;2022-08-19T03:10:31;4.47;;;4.10;;
13816;SDS011;6979;52.116;5.286;2022-08-19T03:12:58;5.50;;;5.00;;
13816;SDS011;6979;52.116;5.286;2022-08-19T03:15:25;5.17;;;4.87;;
13816;SDS011;6979;52.116;5.286;2022-08-19T03:17:52;5.07;;;4.43;;
13816;SDS011;6979;52.116;5.286;2022-08-19T03:20:19;5.07;;;4.70;;
13816;SDS011;6979;52.116;5.286;2022-08-19T03:22:47;5.37;;;4.97;;
13816;SDS011;6979;52.116;5.286;2022-08-19T03:25:14;5.70;;;5.30;;
13816;SDS011;6979;52.116;5.286;2022-08-19T03:27:41;5.20;;;4.90;;
13816;SDS011;6979;52.116;5.286;2022-08-19T03:30:09;5.50;;;5.10;;
13816;SDS011;6979;52.116;5.286;2022-08-19T03:32:37;4.97;;;4.67;;
13816;SDS011;6979;52.116;5.286;2022-08-19T03:35:04;5.20;;;4.90;;
13816;SDS011;6979;52.116;5.286;2022-08-19T03:37:31;5.17;;;4.87;;
13816;SDS011;6979;52.116;5.286;2022-08-19T03:39:59;5.13;;;4.83;;
13816;SDS011;6979;52.116;5.286;2022-08-19T03:42:27;5.67;;;5.27;;
13816;SDS011;6979;52.116;5.286;2022-08-19T03:44:56;5.27;;;4.97;;
13816;SDS011;6979;52.116;5.286;2022-08-19T03:47:23;5.37;;;5.07;;
13816;SDS011;6979;52.116;5.286;2022-08-19T03:49:50;5.03;;;4.73;;
13816;SDS011;6979;52.116;5.286;2022-08-19T03:52:17;5.43;;;5.13;;
13816;SDS011;6979;52.116;5.286;2022-08-19T03:54:44;5.70;;;5.30;;
13816;SDS011;6979;52.116;5.286;2022-08-19T03:57:12;5.47;;;5.07;;
13816;SDS011;6979;52.116;5.286;2022-08-19T03:59:39;5.83;;;5.43;;
13816;SDS011;6979;52.116;5.286;2022-08-19T04:02:07;5.17;;;4.77;;
13816;SDS011;6979;52.116;5.286;2022-08-19T04:04:36;6.30;;;5.73;;
13816;SDS011;6979;52.116;5.286;2022-08-19T04:07:03;6.57;;;6.07;;
13816;SDS011;6979;52.116;5.286;2022-08-19T04:09:30;6.47;;;6.07;;
13816;SDS011;6979;52.116;5.286;2022-08-19T04:11:59;8.40;;;7.73;;
13816;SDS011;6979;52.116;5.286;2022-08-19T04:14:28;7.13;;;6.63;;
13816;SDS011;6979;52.116;5.286;2022-08-19T04:16:56;6.43;;;6.03;;
13816;SDS011;6979;52.116;5.286;2022-08-19T04:19:24;6.97;;;6.57;;
13816;SDS011;6979;52.116;5.286;2022-08-19T04:21:52;6.40;;;5.90;;
13816;SDS011;6979;52.116;5.286;2022-08-19T04:24:20;6.60;;;6.10;;
13816;SDS011;6979;52.116;5.286;2022-08-19T04:26:48;6.63;;;6.20;;
13816;SDS011;6979;52.116;5.286;2022-08-19T04:29:16;7.07;;;6.47;;
13816;SDS011;6979;52.116;5.286;2022-08-19T04:31:47;6.50;;;5.90;;
13816;SDS011;6979;52.116;5.286;2022-08-19T04:34:16;7.03;;;6.60;;
13816;SDS011;6979;52.116;5.286;2022-08-19T04:36:47;6.77;;;6.30;;
13816;SDS011;6979;52.116;5.286;2022-08-19T04:39:16;7.30;;;6.80;;
13816;SDS011;6979;52.116;5.286;2022-08-19T04:41:45;7.73;;;7.10;;
13816;SDS011;6979;52.116;5.286;2022-08-19T04:44:31;8.20;;;7.60;;
13816;SDS011;6979;52.116;5.286;2022-08-19T04:47:00;9.10;;;8.40;;
13816;SDS011;6979;52.116;5.286;2022-08-19T04:49:30;9.13;;;8.43;;
13816;SDS011;6979;52.116;5.286;2022-08-19T04:51:57;8.90;;;8.10;;
13816;SDS011;6979;52.116;5.286;2022-08-19T04:54:24;8.97;;;8.37;;
13816;SDS011;6979;52.116;5.286;2022-08-19T04:56:52;10.00;;;9.30;;
13816;SDS011;6979;52.116;5.286;2022-08-19T04:59:19;9.43;;;8.73;;
13816;SDS011;6979;52.116;5.286;2022-08-19T05:01:47;10.50;;;9.60;;
13816;SDS011;6979;52.116;5.286;2022-08-19T05:04:16;11.50;;;10.60;;
13816;SDS011;6979;52.116;5.286;2022-08-19T05:06:45;11.07;;;10.07;;
13816;SDS011;6979;52.116;5.286;2022-08-19T05:09:13;11.27;;;10.40;;
13816;SDS011;6979;52.116;5.286;2022-08-19T05:11:42;12.43;;;11.43;;
13816;SDS011;6979;52.116;5.286;2022-08-19T05:14:09;11.50;;;10.63;;
13816;SDS011;6979;52.116;5.286;2022-08-19T05:16:38;12.87;;;11.87;;
13816;SDS011;6979;52.116;5.286;2022-08-19T05:19:05;12.43;;;11.33;;
13816;SDS011;6979;52.116;5.286;2022-08-19T05:21:51;13.20;;;12.00;;
13816;SDS011;6979;52.116;5.286;2022-08-19T05:24:36;13.37;;;12.27;;
13816;SDS011;6979;52.116;5.286;2022-08-19T05:27:03;14.83;;;13.43;;
13816;SDS011;6979;52.116;5.286;2022-08-19T05:29:31;13.73;;;12.57;;
13816;SDS011;6979;52.116;5.286;2022-08-19T05:32:00;14.67;;;13.43;;
13816;SDS011;6979;52.116;5.286;2022-08-19T05:34:30;15.37;;;14.03;;
13816;SDS011;6979;52.116;5.286;2022-08-19T05:37:00;16.60;;;15.10;;
13816;SDS011;6979;52.116;5.286;2022-08-19T05:39:30;16.13;;;14.73;;
13816;SDS011;6979;52.116;5.286;2022-08-19T05:41:58;16.40;;;14.97;;
13816;SDS011;6979;52.116;5.286;2022-08-19T05:44:27;15.90;;;14.57;;
13816;SDS011;6979;52.116;5.286;2022-08-19T05:46:56;16.13;;;14.73;;
13816;SDS011;6979;52.116;5.286;2022-08-19T05:49:23;16.73;;;15.30;;
13816;SDS011;6979;52.116;5.286;2022-08-19T05:51:50;17.63;;;16.13;;
13816;SDS011;6979;52.116;5.286;2022-08-19T05:54:19;18.87;;;17.23;;
13816;SDS011;6979;52.116;5.286;2022-08-19T05:56:46;17.50;;;15.93;;
13816;SDS011;6979;52.116;5.286;2022-08-19T05:59:13;18.40;;;16.70;;
13816;SDS011;6979;52.116;5.286;2022-08-19T06:01:42;21.33;;;19.37;;
13816;SDS011;6979;52.116;5.286;2022-08-19T06:04:11;21.77;;;19.87;;
13816;SDS011;6979;52.116;5.286;2022-08-19T06:06:39;19.50;;;17.80;;
13816;SDS011;6979;52.116;5.286;2022-08-19T06:09:07;18.40;;;16.70;;
13816;SDS011;6979;52.116;5.286;2022-08-19T06:11:37;20.87;;;18.93;;
13816;SDS011;6979;52.116;5.286;2022-08-19T06:14:07;20.97;;;19.10;;
13816;SDS011;6979;52.116;5.286;2022-08-19T06:16:35;23.30;;;21.17;;
13816;SDS011;6979;52.116;5.286;2022-08-19T06:19:07;24.77;;;22.37;;
13816;SDS011;6979;52.116;5.286;2022-08-19T06:21:36;22.00;;;20.00;;
13816;SDS011;6979;52.116;5.286;2022-08-19T06:24:05;21.50;;;19.50;;
13816;SDS011;6979;52.116;5.286;2022-08-19T06:26:33;23.10;;;20.67;;
13816;SDS011;6979;52.116;5.286;2022-08-19T06:29:02;21.87;;;19.80;;
13816;SDS011;6979;52.116;5.286;2022-08-19T06:31:31;22.33;;;20.33;;
13816;SDS011;6979;52.116;5.286;2022-08-19T06:33:59;21.80;;;19.80;;
13816;SDS011;6979;52.116;5.286;2022-08-19T06:36:29;23.13;;;21.03;;
13816;SDS011;6979;52.116;5.286;2022-08-19T06:38:59;21.90;;;19.90;;
13816;SDS011;6979;52.116;5.286;2022-08-19T06:41:27;24.47;;;22.20;;
13816;SDS011;6979;52.116;5.286;2022-08-19T06:43:55;22.60;;;20.40;;
13816;SDS011;6979;52.116;5.286;2022-08-19T06:46:23;26.93;;;24.20;;
13816;SDS011;6979;52.116;5.286;2022-08-19T06:48:50;29.13;;;26.03;;
13816;SDS011;6979;52.116;5.286;2022-08-19T06:51:18;33.73;;;30.23;;
13816;SDS011;6979;52.116;5.286;2022-08-19T06:53:45;34.97;;;31.03;;
13816;SDS011;6979;52.116;5.286;2022-08-19T06:56:12;32.70;;;29.30;;
13816;SDS011;6979;52.116;5.286;2022-08-19T06:58:40;35.50;;;31.70;;
13816;SDS011;6979;52.116;5.286;2022-08-19T07:01:07;33.23;;;29.87;;
13816;SDS011;6979;52.116;5.286;2022-08-19T07:03:36;33.63;;;30.07;;
13816;SDS011;6979;52.116;5.286;2022-08-19T07:06:04;31.40;;;28.13;;
13816;SDS011;6979;52.116;5.286;2022-08-19T07:08:33;31.50;;;28.10;;
13816;SDS011;6979;52.116;5.286;2022-08-19T07:11:01;36.00;;;32.37;;
13816;SDS011;6979;52.116;5.286;2022-08-19T07:13:28;31.07;;;27.87;;
13816;SDS011;6979;52.116;5.286;2022-08-19T07:16:02;30.23;;;27.00;;
13816;SDS011;6979;52.116;5.286;2022-08-19T07:18:30;29.23;;;26.53;;
13816;SDS011;6979;52.116;5.286;2022-08-19T07:21:03;31.20;;;28.00;;
13816;SDS011;6979;52.116;5.286;2022-08-19T07:23:31;30.87;;;27.73;;
13816;SDS011;6979;52.116;5.286;2022-08-19T07:25:58;28.87;;;25.80;;
13816;SDS011;6979;52.116;5.286;2022-08-19T07:28:30;26.17;;;23.73;;
13816;SDS011;6979;52.116;5.286;2022-08-19T07:30:56;27.47;;;24.87;;
13816;SDS011;6979;52.116;5.286;2022-08-19T07:33:23;28.40;;;25.53;;
13816;SDS011;6979;52.116;5.286;2022-08-19T07:35:51;30.53;;;27.43;;
13816;SDS011;6979;52.116;5.286;2022-08-19T07:38:21;28.40;;;25.70;;
13816;SDS011;6979;52.116;5.286;2022-08-19T07:40:49;30.63;;;27.67;;
13816;SDS011;6979;52.116;5.286;2022-08-19T07:43:16;27.13;;;24.57;;
13816;SDS011;6979;52.116;5.286;2022-08-19T07:45:50;30.67;;;27.67;;
13816;SDS011;6979;52.116;5.286;2022-08-19T07:48:16;27.33;;;24.80;;
13816;SDS011;6979;52.116;5.286;2022-08-19T07:50:43;26.13;;;23.83;;
13816;SDS011;6979;52.116;5.286;2022-08-19T07:53:10;29.13;;;26.33;;
13816;SDS011;6979;52.116;5.286;2022-08-19T07:55:39;25.63;;;23.33;;
13816;SDS011;6979;52.116;5.286;2022-08-19T07:58:06;28.57;;;25.87;;
13816;SDS011;6979;52.116;5.286;2022-08-19T08:00:34;26.50;;;23.83;;
13816;SDS011;6979;52.116;5.286;2022-08-19T08:03:01;25.63;;;23.13;;
13816;SDS011;6979;52.116;5.286;2022-08-19T08:05:28;26.80;;;24.20;;
13816;SDS011;6979;52.116;5.286;2022-08-19T08:08:12;22.87;;;20.70;;
13816;SDS011;6979;52.116;5.286;2022-08-19T08:10:58;25.77;;;23.37;;
13816;SDS011;6979;52.116;5.286;2022-08-19T08:13:25;24.90;;;22.70;;
13816;SDS011;6979;52.116;5.286;2022-08-19T08:15:53;23.40;;;21.30;;
13816;SDS011;6979;52.116;5.286;2022-08-19T08:18:20;23.47;;;21.27;;
13816;SDS011;6979;52.116;5.286;2022-08-19T08:20:46;21.93;;;19.93;;
13816;SDS011;6979;52.116;5.286;2022-08-19T08:23:13;22.70;;;20.60;;
13816;SDS011;6979;52.116;5.286;2022-08-19T08:25:50;23.37;;;21.23;;
13816;SDS011;6979;52.116;5.286;2022-08-19T08:28:21;22.03;;;19.87;;
13816;SDS011;6979;52.116;5.286;2022-08-19T08:30:48;22.30;;;20.10;;
13816;SDS011;6979;52.116;5.286;2022-08-19T08:33:17;22.53;;;20.37;;
13816;SDS011;6979;52.116;5.286;2022-08-19T08:35:45;23.87;;;21.70;;
13816;SDS011;6979;52.116;5.286;2022-08-19T08:38:12;24.77;;;22.43;;
13816;SDS011;6979;52.116;5.286;2022-08-19T08:40:42;25.83;;;23.43;;
13816;SDS011;6979;52.116;5.286;2022-08-19T08:43:14;23.20;;;21.13;;
13816;SDS011;6979;52.116;5.286;2022-08-19T08:45:50;25.43;;;23.13;;
13816;SDS011;6979;52.116;5.286;2022-08-19T08:48:22;23.90;;;21.70;;
13816;SDS011;6979;52.116;5.286;2022-08-19T08:50:53;23.43;;;21.23;;
13816;SDS011;6979;52.116;5.286;2022-08-19T08:53:22;23.90;;;21.90;;
13816;SDS011;6979;52.116;5.286;2022-08-19T08:55:51;24.20;;;22.03;;
13816;SDS011;6979;52.116;5.286;2022-08-19T08:58:20;23.50;;;21.40;;
13816;SDS011;6979;52.116;5.286;2022-08-19T09:00:55;24.47;;;22.47;;
13816;SDS011;6979;52.116;5.286;2022-08-19T09:03:23;22.67;;;20.77;;
13816;SDS011;6979;52.116;5.286;2022-08-19T09:05:55;24.23;;;21.83;;
13816;SDS011;6979;52.116;5.286;2022-08-19T09:08:28;23.03;;;21.07;;
13816;SDS011;6979;52.116;5.286;2022-08-19T09:11:06;24.43;;;22.23;;
13816;SDS011;6979;52.116;5.286;2022-08-19T09:13:42;22.13;;;20.33;;
13816;SDS011;6979;52.116;5.286;2022-08-19T09:16:19;20.23;;;18.53;;
13816;SDS011;6979;52.116;5.286;2022-08-19T09:18:52;21.67;;;19.80;;
13816;SDS011;6979;52.116;5.286;2022-08-19T09:21:24;22.87;;;20.80;;
13816;SDS011;6979;52.116;5.286;2022-08-19T09:23:52;20.13;;;18.33;;
13816;SDS011;6979;52.116;5.286;2022-08-19T09:26:20;21.60;;;19.70;;
13816;SDS011;6979;52.116;5.286;2022-08-19T09:28:51;18.77;;;17.23;;
13816;SDS011;6979;52.116;5.286;2022-08-19T09:31:20;18.03;;;16.53;;
13816;SDS011;6979;52.116;5.286;2022-08-19T09:33:49;18.90;;;17.10;;
13816;SDS011;6979;52.116;5.286;2022-08-19T09:36:18;17.30;;;15.67;;
13816;SDS011;6979;52.116;5.286;2022-08-19T09:38:48;15.87;;;14.57;;
13816;SDS011;6979;52.116;5.286;2022-08-19T09:41:16;14.80;;;13.60;;
13816;SDS011;6979;52.116;5.286;2022-08-19T09:43:45;18.23;;;16.63;;
13816;SDS011;6979;52.116;5.286;2022-08-19T09:46:14;15.77;;;14.47;;
13816;SDS011;6979;52.116;5.286;2022-08-19T09:48:41;17.57;;;16.17;;
13816;SDS011;6979;52.116;5.286;2022-08-19T09:51:10;18.60;;;16.73;;
13816;SDS011;6979;52.116;5.286;2022-08-19T09:53:40;18.73;;;17.13;;
13816;SDS011;6979;52.116;5.286;2022-08-19T09:56:07;17.60;;;16.20;;
13816;SDS011;6979;52.116;5.286;2022-08-19T09:58:34;17.40;;;16.17;;
13816;SDS011;6979;52.116;5.286;2022-08-19T10:01:02;17.20;;;15.90;;
13816;SDS011;6979;52.116;5.286;2022-08-19T10:03:33;19.83;;;18.23;;
13816;SDS011;6979;52.116;5.286;2022-08-19T10:06:02;20.17;;;18.67;;
13816;SDS011;6979;52.116;5.286;2022-08-19T10:08:32;21.17;;;19.67;;
13816;SDS011;6979;52.116;5.286;2022-08-19T10:11:01;21.13;;;19.43;;
13816;SDS011;6979;52.116;5.286;2022-08-19T10:13:30;19.27;;;17.77;;
13816;SDS011;6979;52.116;5.286;2022-08-19T10:16:03;17.80;;;16.50;;
13816;SDS011;6979;52.116;5.286;2022-08-19T10:18:34;17.53;;;16.13;;
13816;SDS011;6979;52.116;5.286;2022-08-19T10:21:05;19.73;;;18.10;;
13816;SDS011;6979;52.116;5.286;2022-08-19T10:23:34;20.70;;;19.07;;
13816;SDS011;6979;52.116;5.286;2022-08-19T10:26:02;19.87;;;18.37;;
13816;SDS011;6979;52.116;5.286;2022-08-19T10:28:31;19.63;;;17.80;;
13816;SDS011;6979;52.116;5.286;2022-08-19T10:31:03;17.13;;;15.93;;
13816;SDS011;6979;52.116;5.286;2022-08-19T10:33:31;20.07;;;18.57;;
13816;SDS011;6979;52.116;5.286;2022-08-19T10:36:00;21.77;;;20.17;;
13816;SDS011;6979;52.116;5.286;2022-08-19T10:38:29;20.53;;;18.93;;
13816;SDS011;6979;52.116;5.286;2022-08-19T10:40:56;19.47;;;17.83;;
13816;SDS011;6979;52.116;5.286;2022-08-19T10:43:23;20.67;;;19.07;;
13816;SDS011;6979;52.116;5.286;2022-08-19T10:45:54;22.40;;;20.70;;
13816;SDS011;6979;52.116;5.286;2022-08-19T10:48:24;20.87;;;19.27;;
13816;SDS011;6979;52.116;5.286;2022-08-19T10:50:52;19.73;;;18.13;;
13816;SDS011;6979;52.116;5.286;2022-08-19T10:53:37;21.00;;;19.37;;
13816;SDS011;6979;52.116;5.286;2022-08-19T10:56:03;20.33;;;18.73;;
13816;SDS011;6979;52.116;5.286;2022-08-19T10:58:48;26.57;;;24.37;;
13816;SDS011;6979;52.116;5.286;2022-08-19T11:01:15;25.30;;;23.13;;
13816;SDS011;6979;52.116;5.286;2022-08-19T11:03:41;21.13;;;19.53;;
13816;SDS011;6979;52.116;5.286;2022-08-19T11:06:11;21.63;;;19.93;;
13816;SDS011;6979;52.116;5.286;2022-08-19T11:08:38;19.83;;;18.13;;
13816;SDS011;6979;52.116;5.286;2022-08-19T11:11:07;19.97;;;18.43;;
13816;SDS011;6979;52.116;5.286;2022-08-19T11:13:35;20.07;;;18.47;;
13816;SDS011;6979;52.116;5.286;2022-08-19T11:16:05;21.13;;;19.53;;
13816;SDS011;6979;52.116;5.286;2022-08-19T11:18:35;17.73;;;16.43;;
13816;SDS011;6979;52.116;5.286;2022-08-19T11:21:07;20.70;;;19.10;;
13816;SDS011;6979;52.116;5.286;2022-08-19T11:23:36;22.23;;;20.50;;
13816;SDS011;6979;52.116;5.286;2022-08-19T11:26:03;21.80;;;20.00;;
13816;SDS011;6979;52.116;5.286;2022-08-19T11:28:30;22.73;;;20.83;;
13816;SDS011;6979;52.116;5.286;2022-08-19T11:30:57;20.37;;;18.87;;
13816;SDS011;6979;52.116;5.286;2022-08-19T11:33:24;19.80;;;18.30;;
13816;SDS011;6979;52.116;5.286;2022-08-19T11:35:52;21.03;;;19.43;;
13816;SDS011;6979;52.116;5.286;2022-08-19T11:38:19;19.83;;;18.23;;
13816;SDS011;6979;52.116;5.286;2022-08-19T11:40:54;18.63;;;17.20;;
13816;SDS011;6979;52.116;5.286;2022-08-19T11:43:22;18.00;;;16.60;;
13816;SDS011;6979;52.116;5.286;2022-08-19T11:45:49;20.07;;;18.40;;
13816;SDS011;6979;52.116;5.286;2022-08-19T11:48:16;18.40;;;16.97;;
13816;SDS011;6979;52.116;5.286;2022-08-19T11:50:47;19.13;;;17.73;;
13816;SDS011;6979;52.116;5.286;2022-08-19T11:53:14;21.03;;;19.37;;
13816;SDS011;6979;52.116;5.286;2022-08-19T11:55:41;19.10;;;17.50;;
13816;SDS011;6979;52.116;5.286;2022-08-19T11:58:11;20.23;;;18.70;;
13816;SDS011;6979;52.116;5.286;2022-08-19T12:00:38;19.77;;;18.20;;
13816;SDS011;6979;52.116;5.286;2022-08-19T12:03:06;21.37;;;19.67;;
13816;SDS011;6979;52.116;5.286;2022-08-19T12:05:33;19.57;;;18.07;;
13816;SDS011;6979;52.116;5.286;2022-08-19T12:08:02;20.87;;;19.47;;
13816;SDS011;6979;52.116;5.286;2022-08-19T12:10:29;21.17;;;19.60;;
13816;SDS011;6979;52.116;5.286;2022-08-19T12:12:56;20.50;;;18.90;;
13816;SDS011;6979;52.116;5.286;2022-08-19T12:15:24;21.97;;;20.23;;
13816;SDS011;6979;52.116;5.286;2022-08-19T12:17:52;23.83;;;21.67;;
13816;SDS011;6979;52.116;5.286;2022-08-19T12:20:20;20.17;;;18.63;;
13816;SDS011;6979;52.116;5.286;2022-08-19T12:22:47;20.10;;;18.40;;
13816;SDS011;6979;52.116;5.286;2022-08-19T12:25:13;20.00;;;18.37;;
13816;SDS011;6979;52.116;5.286;2022-08-19T12:27:40;19.40;;;17.93;;
13816;SDS011;6979;52.116;5.286;2022-08-19T12:30:08;16.60;;;15.37;;
13816;SDS011;6979;52.116;5.286;2022-08-19T12:32:38;17.10;;;15.80;;
13816;SDS011;6979;52.116;5.286;2022-08-19T12:35:06;17.23;;;15.83;;
13816;SDS011;6979;52.116;5.286;2022-08-19T12:37:36;18.57;;;17.17;;
13816;SDS011;6979;52.116;5.286;2022-08-19T12:40:04;15.17;;;14.07;;
13816;SDS011;6979;52.116;5.286;2022-08-19T12:42:31;17.40;;;16.10;;
13816;SDS011;6979;52.116;5.286;2022-08-19T12:44:58;14.43;;;13.27;;
13816;SDS011;6979;52.116;5.286;2022-08-19T12:47:25;14.03;;;13.03;;
13816;SDS011;6979;52.116;5.286;2022-08-19T12:49:53;14.80;;;13.70;;
13816;SDS011;6979;52.116;5.286;2022-08-19T12:52:21;13.90;;;12.90;;
13816;SDS011;6979;52.116;5.286;2022-08-19T12:54:49;14.90;;;13.77;;
13816;SDS011;6979;52.116;5.286;2022-08-19T12:57:16;13.80;;;12.80;;
13816;SDS011;6979;52.116;5.286;2022-08-19T12:59:43;14.63;;;13.53;;
13816;SDS011;6979;52.116;5.286;2022-08-19T13:02:10;13.67;;;12.63;;
13816;SDS011;6979;52.116;5.286;2022-08-19T13:04:37;12.50;;;11.50;;
13816;SDS011;6979;52.116;5.286;2022-08-19T13:07:07;11.97;;;11.07;;
13816;SDS011;6979;52.116;5.286;2022-08-19T13:09:34;10.70;;;10.00;;
13816;SDS011;6979;52.116;5.286;2022-08-19T13:12:02;10.40;;;9.67;;
13816;SDS011;6979;52.116;5.286;2022-08-19T13:14:32;11.27;;;10.50;;
13816;SDS011;6979;52.116;5.286;2022-08-19T13:17:00;10.40;;;9.70;;
13816;SDS011;6979;52.116;5.286;2022-08-19T13:19:26;10.20;;;9.60;;
13816;SDS011;6979;52.116;5.286;2022-08-19T13:21:53;11.60;;;10.80;;
13816;SDS011;6979;52.116;5.286;2022-08-19T13:24:22;11.77;;;10.70;;
13816;SDS011;6979;52.116;5.286;2022-08-19T13:26:49;11.30;;;10.50;;
13816;SDS011;6979;52.116;5.286;2022-08-19T13:29:16;10.03;;;9.27;;
13816;SDS011;6979;52.116;5.286;2022-08-19T13:32:00;9.17;;;8.57;;
13816;SDS011;6979;52.116;5.286;2022-08-19T13:34:56;9.30;;;8.60;;
13816;SDS011;6979;52.116;5.286;2022-08-19T13:37:23;7.77;;;7.27;;
13816;SDS011;6979;52.116;5.286;2022-08-19T13:40:06;7.73;;;7.03;;
13816;SDS011;6979;52.116;5.286;2022-08-19T13:42:36;7.40;;;6.90;;
13816;SDS011;6979;52.116;5.286;2022-08-19T13:45:03;8.23;;;7.73;;
13816;SDS011;6979;52.116;5.286;2022-08-19T13:47:31;8.73;;;8.03;;
13816;SDS011;6979;52.116;5.286;2022-08-19T13:49:59;8.63;;;7.97;;
13816;SDS011;6979;52.116;5.286;2022-08-19T13:52:26;9.50;;;8.77;;
13816;SDS011;6979;52.116;5.286;2022-08-19T13:54:53;8.77;;;8.17;;
13816;SDS011;6979;52.116;5.286;2022-08-19T13:57:21;9.27;;;8.60;;
13816;SDS011;6979;52.116;5.286;2022-08-19T13:59:48;9.00;;;8.30;;
13816;SDS011;6979;52.116;5.286;2022-08-19T14:02:14;8.17;;;7.57;;
13816;SDS011;6979;52.116;5.286;2022-08-19T14:04:41;8.03;;;7.43;;
13816;SDS011;6979;52.116;5.286;2022-08-19T14:07:08;8.83;;;8.10;;
13816;SDS011;6979;52.116;5.286;2022-08-19T14:09:35;7.33;;;6.83;;
13816;SDS011;6979;52.116;5.286;2022-08-19T14:12:02;6.53;;;6.13;;
13816;SDS011;6979;52.116;5.286;2022-08-19T14:14:31;7.37;;;6.83;;
13816;SDS011;6979;52.116;5.286;2022-08-19T14:16:57;6.53;;;6.03;;
13816;SDS011;6979;52.116;5.286;2022-08-19T14:19:24;7.00;;;6.50;;
13816;SDS011;6979;52.116;5.286;2022-08-19T14:21:51;6.90;;;6.27;;
13816;SDS011;6979;52.116;5.286;2022-08-19T14:24:18;6.03;;;5.53;;
13816;SDS011;6979;52.116;5.286;2022-08-19T14:26:44;5.17;;;4.87;;
13816;SDS011;6979;52.116;5.286;2022-08-19T14:29:11;6.47;;;5.87;;
13816;SDS011;6979;52.116;5.286;2022-08-19T14:31:39;6.53;;;5.97;;
13816;SDS011;6979;52.116;5.286;2022-08-19T14:34:09;5.57;;;5.17;;
13816;SDS011;6979;52.116;5.286;2022-08-19T14:36:37;6.37;;;5.77;;
13816;SDS011;6979;52.116;5.286;2022-08-19T14:39:04;5.70;;;5.20;;
13816;SDS011;6979;52.116;5.286;2022-08-19T14:41:31;6.23;;;5.70;;
13816;SDS011;6979;52.116;5.286;2022-08-19T14:43:58;5.57;;;5.27;;
13816;SDS011;6979;52.116;5.286;2022-08-19T14:46:25;7.93;;;7.33;;
13816;SDS011;6979;52.116;5.286;2022-08-19T14:48:55;8.23;;;7.53;;
13816;SDS011;6979;52.116;5.286;2022-08-19T14:51:22;6.10;;;5.70;;
13816;SDS011;6979;52.116;5.286;2022-08-19T14:53:51;6.03;;;5.63;;